sensor_id;sensor_type;location;lat;lon;timestamp;pressure;altitude;pressure_sealevel;temperature;humidity
13836;BME280;6988;52.614;13.500;2023-06-01T00:01:29;53855.81;;;-143.77;56.89
13836;BME280;6988;52.614;13.500;2023-06-01T00:06:24;53845.56;;;-143.77;56.71
13836;BME280;6988;52.614;13.500;2023-06-01T00:11:19;53870.19;;;-143.77;56.73
13836;BME280;6988;52.614;13.500;2023-06-01T00:16:11;53868.13;;;-143.77;57.16
13836;BME280;6988;52.614;13.500;2023-06-01T00:21:05;53859.91;;;-143.77;57.07
13836;BME280;6988;52.614;13.500;2023-06-01T00:25:57;53839.41;;;-143.77;57.56
13836;BME280;6988;52.614;13.500;2023-06-01T00:30:49;53847.59;;;-143.77;57.84
13836;BME280;6988;52.614;13.500;2023-06-01T00:35:42;53855.81;;;-143.77;58.38
13836;BME280;6988;52.614;13.500;2023-06-01T00:40:35;53874.28;;;-143.77;58.23
13836;BME280;6988;52.614;13.500;2023-06-01T00:45:27;53868.13;;;-143.77;58.82
13836;BME280;6988;52.614;13.500;2023-06-01T00:50:19;53868.13;;;-143.77;59.02
13836;BME280;6988;52.614;13.500;2023-06-01T00:55:13;53872.22;;;-143.77;59.36
13836;BME280;6988;52.614;13.500;2023-06-01T01:00:08;53882.50;;;-143.77;59.35
13836;BME280;6988;52.614;13.500;2023-06-01T01:05:01;53911.22;;;-143.77;59.64
13836;BME280;6988;52.614;13.500;2023-06-01T01:09:58;53903.00;;;-143.77;59.69
13836;BME280;6988;52.614;13.500;2023-06-01T01:15:01;53898.91;;;-143.77;59.88
13836;BME280;6988;52.614;13.500;2023-06-01T01:20:06;53878.38;;;-143.77;59.90
13836;BME280;6988;52.614;13.500;2023-06-01T01:25:20;53896.84;;;-143.77;60.36
13836;BME280;6988;52.614;13.500;2023-06-01T01:30:16;53921.47;;;-143.77;60.74
13836;BME280;6988;52.614;13.500;2023-06-01T01:35:12;53892.75;;;-143.77;60.83
13836;BME280;6988;52.614;13.500;2023-06-01T01:40:07;53905.06;;;-143.77;61.04
13836;BME280;6988;52.614;13.500;2023-06-01T01:44:59;53931.72;;;-143.77;60.87
13836;BME280;6988;52.614;13.500;2023-06-01T01:49:59;53941.97;;;-143.77;61.22
13836;BME280;6988;52.614;13.500;2023-06-01T01:54:56;53907.09;;;-143.77;61.36
13836;BME280;6988;52.614;13.500;2023-06-01T01:59:56;53894.78;;;-143.77;61.69
13836;BME280;6988;52.614;13.500;2023-06-01T02:04:48;53896.84;;;-143.77;62.00
13836;BME280;6988;52.614;13.500;2023-06-01T02:09:42;53882.50;;;-143.77;62.04
13836;BME280;6988;52.614;13.500;2023-06-01T02:14:36;53923.53;;;-143.77;62.60
13836;BME280;6988;52.614;13.500;2023-06-01T02:19:28;53923.53;;;-143.77;63.07
13836;BME280;6988;52.614;13.500;2023-06-01T02:24:20;53925.56;;;-143.77;63.16
13836;BME280;6988;52.614;13.500;2023-06-01T02:29:14;53939.94;;;-143.77;63.91
13836;BME280;6988;52.614;13.500;2023-06-01T02:34:06;53925.56;;;-143.77;64.09
13836;BME280;6988;52.614;13.500;2023-06-01T02:38:58;53921.47;;;-143.77;64.61
13836;BME280;6988;52.614;13.500;2023-06-01T02:43:51;53937.88;;;-143.77;64.83
13836;BME280;6988;52.614;13.500;2023-06-01T02:48:45;53933.78;;;-143.77;64.67
13836;BME280;6988;52.614;13.500;2023-06-01T02:53:39;53925.56;;;-143.77;64.89
13836;BME280;6988;52.614;13.500;2023-06-01T02:58:33;53941.97;;;-143.77;65.27
13836;BME280;6988;52.614;13.500;2023-06-01T03:03:35;53931.72;;;-143.77;65.27
13836;BME280;6988;52.614;13.500;2023-06-01T03:08:28;53939.94;;;-143.77;65.52
13836;BME280;6988;52.614;13.500;2023-06-01T03:13:20;53958.41;;;-143.77;66.63
13836;BME280;6988;52.614;13.500;2023-06-01T03:18:12;53974.81;;;-143.77;66.90
13836;BME280;6988;52.614;13.500;2023-06-01T03:23:04;53974.81;;;-143.77;67.25
13836;BME280;6988;52.614;13.500;2023-06-01T03:27:57;54007.63;;;-143.77;67.92
13836;BME280;6988;52.614;13.500;2023-06-01T03:32:50;53954.28;;;-143.77;68.31
13836;BME280;6988;52.614;13.500;2023-06-01T03:37:44;53980.97;;;-143.77;69.00
13836;BME280;6988;52.614;13.500;2023-06-01T03:42:39;54007.63;;;-143.77;69.07
13836;BME280;6988;52.614;13.500;2023-06-01T03:47:32;53991.22;;;-143.77;69.37
13836;BME280;6988;52.614;13.500;2023-06-01T03:52:25;54044.56;;;-143.77;70.11
13836;BME280;6988;52.614;13.500;2023-06-01T03:57:17;53987.13;;;-143.77;70.76
13836;BME280;6988;52.614;13.500;2023-06-01T04:02:08;53995.31;;;-143.77;70.96
13836;BME280;6988;52.614;13.500;2023-06-01T04:07:03;53985.06;;;-143.77;70.96
13836;BME280;6988;52.614;13.500;2023-06-01T04:11:55;53995.31;;;-143.77;71.02
13836;BME280;6988;52.614;13.500;2023-06-01T04:16:47;53978.91;;;-143.77;71.14
13836;BME280;6988;52.614;13.500;2023-06-01T04:21:39;53995.31;;;-143.77;71.20
13836;BME280;6988;52.614;13.500;2023-06-01T04:26:32;53991.22;;;-143.77;71.42
13836;BME280;6988;52.614;13.500;2023-06-01T04:31:26;53966.59;;;-143.77;71.93
13836;BME280;6988;52.614;13.500;2023-06-01T04:36:19;53950.19;;;-143.77;71.53
13836;BME280;6988;52.614;13.500;2023-06-01T04:41:15;53964.56;;;-143.77;71.94
13836;BME280;6988;52.614;13.500;2023-06-01T04:46:08;53956.34;;;-143.77;71.94
13836;BME280;6988;52.614;13.500;2023-06-01T04:51:01;53958.41;;;-143.77;71.91
13836;BME280;6988;52.614;13.500;2023-06-01T04:55:54;53954.28;;;-143.77;71.97
13836;BME280;6988;52.614;13.500;2023-06-01T05:00:47;53970.72;;;-143.77;71.79
13836;BME280;6988;52.614;13.500;2023-06-01T05:05:41;53974.81;;;-143.77;72.14
13836;BME280;6988;52.614;13.500;2023-06-01T05:10:34;53995.31;;;-143.77;72.15
13836;BME280;6988;52.614;13.500;2023-06-01T05:15:26;53966.59;;;-143.77;72.06
13836;BME280;6988;52.614;13.500;2023-06-01T05:20:20;53976.88;;;-143.77;72.04
13836;BME280;6988;52.614;13.500;2023-06-01T05:25:20;53995.31;;;-143.77;71.32
13836;BME280;6988;52.614;13.500;2023-06-01T05:30:12;53972.75;;;-143.77;70.76
13836;BME280;6988;52.614;13.500;2023-06-01T05:35:06;53966.59;;;-143.77;70.21
13836;BME280;6988;52.614;13.500;2023-06-01T05:39:59;53983.00;;;-143.77;70.58
13836;BME280;6988;52.614;13.500;2023-06-01T05:44:53;54001.47;;;-143.77;70.49
13836;BME280;6988;52.614;13.500;2023-06-01T05:49:45;53970.72;;;-143.77;70.31
13836;BME280;6988;52.614;13.500;2023-06-01T05:54:36;53974.81;;;-143.77;70.28
13836;BME280;6988;52.614;13.500;2023-06-01T05:59:29;53966.59;;;-143.77;69.87
13836;BME280;6988;52.614;13.500;2023-06-01T06:04:23;53964.56;;;-143.77;69.66
13836;BME280;6988;52.614;13.500;2023-06-01T06:09:14;53966.59;;;-143.77;68.16
13836;BME280;6988;52.614;13.500;2023-06-01T06:14:07;53937.88;;;-143.77;67.39
13836;BME280;6988;52.614;13.500;2023-06-01T06:19:01;53944.03;;;-143.77;67.05
13836;BME280;6988;52.614;13.500;2023-06-01T06:23:55;53950.19;;;-143.77;66.14
13836;BME280;6988;52.614;13.500;2023-06-01T06:28:49;53917.38;;;-143.77;65.67
13836;BME280;6988;52.614;13.500;2023-06-01T06:33:41;53905.06;;;-143.77;65.16
13836;BME280;6988;52.614;13.500;2023-06-01T06:38:33;53786.06;;;-143.77;64.35
13836;BME280;6988;52.614;13.500;2023-06-01T06:43:26;53835.31;;;-143.77;63.46
13836;BME280;6988;52.614;13.500;2023-06-01T06:48:18;53878.38;;;-143.77;62.36
13836;BME280;6988;52.614;13.500;2023-06-01T06:53:10;53861.97;;;-143.77;62.03
13836;BME280;6988;52.614;13.500;2023-06-01T06:58:02;53861.97;;;-143.77;62.26
13836;BME280;6988;52.614;13.500;2023-06-01T07:02:56;53880.44;;;-143.77;61.62
13836;BME280;6988;52.614;13.500;2023-06-01T07:07:49;53868.13;;;-143.77;61.70
13836;BME280;6988;52.614;13.500;2023-06-01T07:12:41;53730.66;;;-143.77;61.71
13836;BME280;6988;52.614;13.500;2023-06-01T07:17:33;53859.91;;;-143.77;60.83
13836;BME280;6988;52.614;13.500;2023-06-01T07:22:26;53728.63;;;-143.77;60.22
13836;BME280;6988;52.614;13.500;2023-06-01T07:27:18;53777.84;;;-143.77;59.56
13836;BME280;6988;52.614;13.500;2023-06-01T07:32:11;53781.97;;;-143.77;59.88
13836;BME280;6988;52.614;13.500;2023-06-01T07:37:03;53784.00;;;-143.77;58.82
13836;BME280;6988;52.614;13.500;2023-06-01T07:41:56;53792.22;;;-143.77;57.93
13836;BME280;6988;52.614;13.500;2023-06-01T07:46:48;53640.41;;;-143.77;57.53
13836;BME280;6988;52.614;13.500;2023-06-01T07:51:40;53736.81;;;-143.77;56.04
13836;BME280;6988;52.614;13.500;2023-06-01T07:56:33;53630.16;;;-143.77;55.99
13836;BME280;6988;52.614;13.500;2023-06-01T08:01:26;53589.13;;;-143.77;54.74
13836;BME280;6988;52.614;13.500;2023-06-01T08:06:18;53570.66;;;-143.77;53.65
13836;BME280;6988;52.614;13.500;2023-06-01T08:11:13;53601.44;;;-143.77;52.62
13836;BME280;6988;52.614;13.500;2023-06-01T08:16:05;53529.63;;;-143.77;51.69
13836;BME280;6988;52.614;13.500;2023-06-01T08:20:58;53509.09;;;-143.77;49.22
13836;BME280;6988;52.614;13.500;2023-06-01T08:25:50;53484.50;;;-143.77;47.51
13836;BME280;6988;52.614;13.500;2023-06-01T08:30:42;53451.66;;;-143.77;46.85
13836;BME280;6988;52.614;13.500;2023-06-01T08:35:34;53431.16;;;-143.77;46.12
13836;BME280;6988;52.614;13.500;2023-06-01T08:40:27;53406.53;;;-143.77;46.33
13836;BME280;6988;52.614;13.500;2023-06-01T08:45:20;53408.59;;;-143.77;45.32
13836;BME280;6988;52.614;13.500;2023-06-01T08:50:12;53379.88;;;-143.77;44.43
13836;BME280;6988;52.614;13.500;2023-06-01T08:55:06;53410.66;;;-143.77;44.40
13836;BME280;6988;52.614;13.500;2023-06-01T09:00:00;53408.59;;;-143.77;44.40
13836;BME280;6988;52.614;13.500;2023-06-01T09:04:53;53355.25;;;-143.77;43.69
13836;BME280;6988;52.614;13.500;2023-06-01T09:09:45;53318.34;;;-143.77;43.38
13836;BME280;6988;52.614;13.500;2023-06-01T09:14:37;53310.13;;;-143.77;42.34
13836;BME280;6988;52.614;13.500;2023-06-01T09:19:42;53312.19;;;-143.77;42.17
13836;BME280;6988;52.614;13.500;2023-06-01T09:24:34;53265.00;;;-143.77;41.32
13836;BME280;6988;52.614;13.500;2023-06-01T09:29:26;53254.75;;;-143.77;41.39
13836;BME280;6988;52.614;13.500;2023-06-01T09:34:20;53191.16;;;-143.77;40.99
13836;BME280;6988;52.614;13.500;2023-06-01T09:39:16;53197.31;;;-143.77;40.46
13836;BME280;6988;52.614;13.500;2023-06-01T09:44:08;53244.50;;;-143.77;39.40
13836;BME280;6988;52.614;13.500;2023-06-01T09:49:05;53207.56;;;-143.77;40.56
13836;BME280;6988;52.614;13.500;2023-06-01T09:53:58;53211.66;;;-143.77;40.74
13836;BME280;6988;52.614;13.500;2023-06-01T09:58:58;53166.53;;;-143.77;40.11
13836;BME280;6988;52.614;13.500;2023-06-01T10:03:50;53182.94;;;-143.77;39.33
13836;BME280;6988;52.614;13.500;2023-06-01T10:08:45;53127.56;;;-143.77;38.73
13836;BME280;6988;52.614;13.500;2023-06-01T10:13:38;53133.72;;;-143.77;38.83
13836;BME280;6988;52.614;13.500;2023-06-01T10:18:32;53137.81;;;-143.77;37.95
13836;BME280;6988;52.614;13.500;2023-06-01T10:23:24;53109.09;;;-143.77;38.47
13836;BME280;6988;52.614;13.500;2023-06-01T10:28:18;53133.72;;;-143.77;38.11
13836;BME280;6988;52.614;13.500;2023-06-01T10:33:10;53113.22;;;-143.77;37.90
13836;BME280;6988;52.614;13.500;2023-06-01T10:38:32;53109.09;;;-143.77;38.58
13836;BME280;6988;52.614;13.500;2023-06-01T10:43:40;53063.97;;;-143.77;37.29
13836;BME280;6988;52.614;13.500;2023-06-01T10:48:53;53080.38;;;-143.77;36.87
13836;BME280;6988;52.614;13.500;2023-06-01T10:53:47;53068.09;;;-143.77;37.94
13836;BME280;6988;52.614;13.500;2023-06-01T10:58:39;53063.97;;;-143.77;37.12
13836;BME280;6988;52.614;13.500;2023-06-01T11:03:44;53035.25;;;-143.77;36.60
13836;BME280;6988;52.614;13.500;2023-06-01T11:08:54;53010.66;;;-143.77;35.64
13836;BME280;6988;52.614;13.500;2023-06-01T11:14:11;53041.41;;;-143.77;35.89
13836;BME280;6988;52.614;13.500;2023-06-01T11:19:06;53033.22;;;-143.77;36.67
13836;BME280;6988;52.614;13.500;2023-06-01T11:24:06;53025.00;;;-143.77;36.57
13836;BME280;6988;52.614;13.500;2023-06-01T11:29:11;53016.81;;;-143.77;36.71
13836;BME280;6988;52.614;13.500;2023-06-01T11:34:03;53012.69;;;-143.77;36.16
13836;BME280;6988;52.614;13.500;2023-06-01T11:38:55;52986.03;;;-143.77;35.04
13836;BME280;6988;52.614;13.500;2023-06-01T11:43:54;53000.38;;;-143.77;35.11
13836;BME280;6988;52.614;13.500;2023-06-01T11:48:59;53002.44;;;-143.77;36.00
13836;BME280;6988;52.614;13.500;2023-06-01T11:53:52;53006.53;;;-143.77;35.65
13836;BME280;6988;52.614;13.500;2023-06-01T11:58:45;53022.94;;;-143.77;35.15
13836;BME280;6988;52.614;13.500;2023-06-01T12:03:46;52981.94;;;-143.77;35.22
13836;BME280;6988;52.614;13.500;2023-06-01T12:08:38;52971.69;;;-143.77;34.86
13836;BME280;6988;52.614;13.500;2023-06-01T12:13:30;52986.03;;;-143.77;35.37
13836;BME280;6988;52.614;13.500;2023-06-01T12:18:31;53018.84;;;-143.77;34.74
13836;BME280;6988;52.614;13.500;2023-06-01T12:23:24;52969.63;;;-143.77;34.67
13836;BME280;6988;52.614;13.500;2023-06-01T12:28:16;52977.81;;;-143.77;34.45
13836;BME280;6988;52.614;13.500;2023-06-01T12:33:08;53004.50;;;-143.77;34.19
13836;BME280;6988;52.614;13.500;2023-06-01T12:38:05;52977.81;;;-143.77;34.87
13836;BME280;6988;52.614;13.500;2023-06-01T12:43:00;52977.81;;;-143.77;34.39
13836;BME280;6988;52.614;13.500;2023-06-01T12:47:52;53006.53;;;-143.77;34.76
13836;BME280;6988;52.614;13.500;2023-06-01T12:52:43;52986.03;;;-143.77;33.84
13836;BME280;6988;52.614;13.500;2023-06-01T12:57:37;52994.25;;;-143.77;34.28
13836;BME280;6988;52.614;13.500;2023-06-01T13:02:30;53022.94;;;-143.77;34.34
13836;BME280;6988;52.614;13.500;2023-06-01T13:07:22;52996.28;;;-143.77;34.19
13836;BME280;6988;52.614;13.500;2023-06-01T13:12:14;52981.94;;;-143.77;33.57
13836;BME280;6988;52.614;13.500;2023-06-01T13:17:06;53018.84;;;-143.77;33.39
13836;BME280;6988;52.614;13.500;2023-06-01T13:21:59;53029.09;;;-143.77;33.88
13836;BME280;6988;52.614;13.500;2023-06-01T13:26:51;53004.50;;;-143.77;33.06
13836;BME280;6988;52.614;13.500;2023-06-01T13:31:43;53000.38;;;-143.77;32.95
13836;BME280;6988;52.614;13.500;2023-06-01T13:36:35;52981.94;;;-143.77;32.76
13836;BME280;6988;52.614;13.500;2023-06-01T13:41:28;53018.84;;;-143.77;33.27
13836;BME280;6988;52.614;13.500;2023-06-01T13:46:19;53016.81;;;-143.77;32.80
13836;BME280;6988;52.614;13.500;2023-06-01T13:51:12;53018.84;;;-143.77;33.13
13836;BME280;6988;52.614;13.500;2023-06-01T13:56:04;53047.56;;;-143.77;32.89
13836;BME280;6988;52.614;13.500;2023-06-01T14:00:57;53039.38;;;-143.77;33.31
13836;BME280;6988;52.614;13.500;2023-06-01T14:05:49;53068.09;;;-143.77;33.69
13836;BME280;6988;52.614;13.500;2023-06-01T14:10:41;53080.38;;;-143.77;32.92
13836;BME280;6988;52.614;13.500;2023-06-01T14:15:32;53051.66;;;-143.77;33.62
13836;BME280;6988;52.614;13.500;2023-06-01T14:20:26;53074.22;;;-143.77;33.42
13836;BME280;6988;52.614;13.500;2023-06-01T14:25:18;53049.63;;;-143.77;33.56
13836;BME280;6988;52.614;13.500;2023-06-01T14:30:11;53176.78;;;-143.77;33.80
13836;BME280;6988;52.614;13.500;2023-06-01T14:35:04;53121.41;;;-143.77;33.90
13836;BME280;6988;52.614;13.500;2023-06-01T14:39:58;53127.56;;;-143.77;34.11
13836;BME280;6988;52.614;13.500;2023-06-01T14:44:49;53182.94;;;-143.77;35.22
13836;BME280;6988;52.614;13.500;2023-06-01T14:49:41;53154.22;;;-143.77;34.85
13836;BME280;6988;52.614;13.500;2023-06-01T14:54:33;53141.91;;;-143.77;34.81
13836;BME280;6988;52.614;13.500;2023-06-01T14:59:26;53146.03;;;-143.77;34.67
13836;BME280;6988;52.614;13.500;2023-06-01T15:04:18;53127.56;;;-143.77;34.50
13836;BME280;6988;52.614;13.500;2023-06-01T15:09:10;53185.00;;;-143.77;34.93
13836;BME280;6988;52.614;13.500;2023-06-01T15:14:01;53174.75;;;-143.77;35.42
13836;BME280;6988;52.614;13.500;2023-06-01T15:18:54;53143.97;;;-143.77;35.91
13836;BME280;6988;52.614;13.500;2023-06-01T15:23:46;53178.84;;;-143.77;35.61
13836;BME280;6988;52.614;13.500;2023-06-01T15:28:38;53162.44;;;-143.77;35.76
13836;BME280;6988;52.614;13.500;2023-06-01T15:33:32;53221.91;;;-143.77;35.01
13836;BME280;6988;52.614;13.500;2023-06-01T15:38:25;53203.47;;;-143.77;36.22
13836;BME280;6988;52.614;13.500;2023-06-01T15:43:16;53197.31;;;-143.77;35.33
13836;BME280;6988;52.614;13.500;2023-06-01T15:48:08;53211.66;;;-143.77;35.69
13836;BME280;6988;52.614;13.500;2023-06-01T15:53:00;53203.47;;;-143.77;35.70
13836;BME280;6988;52.614;13.500;2023-06-01T15:57:53;53180.91;;;-143.77;36.11
13836;BME280;6988;52.614;13.500;2023-06-01T16:02:45;53219.88;;;-143.77;35.90
13836;BME280;6988;52.614;13.500;2023-06-01T16:07:36;53207.56;;;-143.77;36.32
13836;BME280;6988;52.614;13.500;2023-06-01T16:12:28;53228.06;;;-143.77;36.14
13836;BME280;6988;52.614;13.500;2023-06-01T16:17:21;53306.03;;;-143.77;36.48
13836;BME280;6988;52.614;13.500;2023-06-01T16:22:13;53363.47;;;-143.77;36.77
13836;BME280;6988;52.614;13.500;2023-06-01T16:27:06;53379.88;;;-143.77;36.43
13836;BME280;6988;52.614;13.500;2023-06-01T16:31:58;53408.59;;;-143.77;37.08
13836;BME280;6988;52.614;13.500;2023-06-01T16:36:51;53425.00;;;-143.77;37.89
13836;BME280;6988;52.614;13.500;2023-06-01T16:41:43;53410.66;;;-143.77;38.02
13836;BME280;6988;52.614;13.500;2023-06-01T16:46:35;53445.50;;;-143.77;38.55
13836;BME280;6988;52.614;13.500;2023-06-01T16:51:26;53396.28;;;-143.77;38.85
13836;BME280;6988;52.614;13.500;2023-06-01T16:56:19;53463.97;;;-143.77;38.84
13836;BME280;6988;52.614;13.500;2023-06-01T17:01:12;53466.03;;;-143.77;39.55
13836;BME280;6988;52.614;13.500;2023-06-01T17:06:05;53482.44;;;-143.77;39.45
13836;BME280;6988;52.614;13.500;2023-06-01T17:10:57;53500.91;;;-143.77;39.85
13836;BME280;6988;52.614;13.500;2023-06-01T17:15:50;53500.91;;;-143.77;39.99
13836;BME280;6988;52.614;13.500;2023-06-01T17:20:42;53486.53;;;-143.77;40.00
13836;BME280;6988;52.614;13.500;2023-06-01T17:25:34;53507.06;;;-143.77;40.19
13836;BME280;6988;52.614;13.500;2023-06-01T17:30:25;53507.06;;;-143.77;40.20
13836;BME280;6988;52.614;13.500;2023-06-01T17:35:19;53531.69;;;-143.77;40.13
13836;BME280;6988;52.614;13.500;2023-06-01T17:40:12;53548.09;;;-143.77;40.93
13836;BME280;6988;52.614;13.500;2023-06-01T17:45:05;53537.84;;;-143.77;40.79
13836;BME280;6988;52.614;13.500;2023-06-01T17:49:58;53509.09;;;-143.77;40.90
13836;BME280;6988;52.614;13.500;2023-06-01T17:54:51;53548.09;;;-143.77;41.00
13836;BME280;6988;52.614;13.500;2023-06-01T17:59:43;53556.28;;;-143.77;41.49
13836;BME280;6988;52.614;13.500;2023-06-01T18:04:35;53564.50;;;-143.77;41.93
13836;BME280;6988;52.614;13.500;2023-06-01T18:09:27;53560.41;;;-143.77;41.70
13836;BME280;6988;52.614;13.500;2023-06-01T18:14:20;53576.81;;;-143.77;41.84
13836;BME280;6988;52.614;13.500;2023-06-01T18:19:11;53624.00;;;-143.77;42.17
13836;BME280;6988;52.614;13.500;2023-06-01T18:24:04;53605.53;;;-143.77;42.33
13836;BME280;6988;52.614;13.500;2023-06-01T18:28:56;53591.16;;;-143.77;42.98
13836;BME280;6988;52.614;13.500;2023-06-01T18:33:50;53560.41;;;-143.77;43.25
13836;BME280;6988;52.614;13.500;2023-06-01T18:38:42;53593.22;;;-143.77;43.54
13836;BME280;6988;52.614;13.500;2023-06-01T18:43:36;53679.38;;;-143.77;43.84
13836;BME280;6988;52.614;13.500;2023-06-01T18:48:28;53605.53;;;-143.77;44.45
13836;BME280;6988;52.614;13.500;2023-06-01T18:53:21;53617.84;;;-143.77;44.29
13836;BME280;6988;52.614;13.500;2023-06-01T18:58:13;53654.75;;;-143.77;44.75
13836;BME280;6988;52.614;13.500;2023-06-01T19:03:05;53662.97;;;-143.77;45.34
13836;BME280;6988;52.614;13.500;2023-06-01T19:07:58;53665.03;;;-143.77;45.74
13836;BME280;6988;52.614;13.500;2023-06-01T19:12:51;53658.88;;;-143.77;46.19
13836;BME280;6988;52.614;13.500;2023-06-01T19:17:44;53693.75;;;-143.77;46.53
13836;BME280;6988;52.614;13.500;2023-06-01T19:22:36;53665.03;;;-143.77;46.90
13836;BME280;6988;52.614;13.500;2023-06-01T19:27:28;53714.25;;;-143.77;47.29
13836;BME280;6988;52.614;13.500;2023-06-01T19:32:21;53704.00;;;-143.77;48.04
13836;BME280;6988;52.614;13.500;2023-06-01T19:37:13;53699.91;;;-143.77;48.35
13836;BME280;6988;52.614;13.500;2023-06-01T19:42:34;53689.63;;;-143.77;48.96
13836;BME280;6988;52.614;13.500;2023-06-01T19:47:44;53712.22;;;-143.77;49.12
13836;BME280;6988;52.614;13.500;2023-06-01T19:52:41;53742.97;;;-143.77;49.67
13836;BME280;6988;52.614;13.500;2023-06-01T19:57:34;53747.09;;;-143.77;50.20
13836;BME280;6988;52.614;13.500;2023-06-01T20:02:44;53740.94;;;-143.77;50.61
13836;BME280;6988;52.614;13.500;2023-06-01T20:07:36;53759.41;;;-143.77;51.11
13836;BME280;6988;52.614;13.500;2023-06-01T20:12:29;53759.41;;;-143.77;51.33
13836;BME280;6988;52.614;13.500;2023-06-01T20:17:27;53757.34;;;-143.77;51.65
13836;BME280;6988;52.614;13.500;2023-06-01T20:22:25;53773.75;;;-143.77;51.95
13836;BME280;6988;52.614;13.500;2023-06-01T20:27:17;53761.44;;;-143.77;52.52
13836;BME280;6988;52.614;13.500;2023-06-01T20:32:09;53796.31;;;-143.77;52.87
13836;BME280;6988;52.614;13.500;2023-06-01T20:37:04;53757.34;;;-143.77;53.15
13836;BME280;6988;52.614;13.500;2023-06-01T20:41:57;53790.16;;;-143.77;53.25
13836;BME280;6988;52.614;13.500;2023-06-01T20:46:51;53777.84;;;-143.77;53.48
13836;BME280;6988;52.614;13.500;2023-06-01T20:51:44;53835.31;;;-143.77;53.61
13836;BME280;6988;52.614;13.500;2023-06-01T20:56:38;53808.63;;;-143.77;54.38
13836;BME280;6988;52.614;13.500;2023-06-01T21:01:33;53835.31;;;-143.77;54.98
13836;BME280;6988;52.614;13.500;2023-06-01T21:06:27;53814.78;;;-143.77;55.20
13836;BME280;6988;52.614;13.500;2023-06-01T21:11:19;53839.41;;;-143.77;55.57
13836;BME280;6988;52.614;13.500;2023-06-01T21:16:10;53831.19;;;-143.77;56.29
13836;BME280;6988;52.614;13.500;2023-06-01T21:21:04;53835.31;;;-143.77;56.94
13836;BME280;6988;52.614;13.500;2023-06-01T21:25:56;53855.81;;;-143.77;57.39
13836;BME280;6988;52.614;13.500;2023-06-01T21:30:47;53831.19;;;-143.77;57.36
13836;BME280;6988;52.614;13.500;2023-06-01T21:35:40;53859.91;;;-143.77;57.63
13836;BME280;6988;52.614;13.500;2023-06-01T21:40:33;53851.72;;;-143.77;58.08
13836;BME280;6988;52.614;13.500;2023-06-01T21:45:25;53831.19;;;-143.77;58.28
13836;BME280;6988;52.614;13.500;2023-06-01T22:04:40;53849.66;;;-143.77;59.21
13836;BME280;6988;52.614;13.500;2023-06-01T22:09:32;53859.91;;;-143.77;59.33
13836;BME280;6988;52.614;13.500;2023-06-01T22:14:24;53898.91;;;-143.77;59.80
13836;BME280;6988;52.614;13.500;2023-06-01T22:19:16;53896.84;;;-143.77;59.81
13836;BME280;6988;52.614;13.500;2023-06-01T22:24:09;53886.59;;;-143.77;59.95
13836;BME280;6988;52.614;13.500;2023-06-01T22:29:01;53888.63;;;-143.77;60.54
13836;BME280;6988;52.614;13.500;2023-06-01T22:33:53;53927.63;;;-143.77;60.68
13836;BME280;6988;52.614;13.500;2023-06-01T22:38:45;53890.69;;;-143.77;60.77
13836;BME280;6988;52.614;13.500;2023-06-01T22:43:39;53884.53;;;-143.77;60.99
13836;BME280;6988;52.614;13.500;2023-06-01T22:48:31;53921.47;;;-143.77;61.36
13836;BME280;6988;52.614;13.500;2023-06-01T22:53:24;53921.47;;;-143.77;61.55
13836;BME280;6988;52.614;13.500;2023-06-01T22:58:16;53923.53;;;-143.77;61.68
13836;BME280;6988;52.614;13.500;2023-06-01T23:03:09;53917.38;;;-143.77;61.82
13836;BME280;6988;52.614;13.500;2023-06-01T23:08:01;53937.88;;;-143.77;62.02
13836;BME280;6988;52.614;13.500;2023-06-01T23:13:01;53913.25;;;-143.77;62.21
13836;BME280;6988;52.614;13.500;2023-06-01T23:17:55;53950.19;;;-143.77;62.62
13836;BME280;6988;52.614;13.500;2023-06-01T23:22:48;53929.69;;;-143.77;62.94
13836;BME280;6988;52.614;13.500;2023-06-01T23:27:40;53952.25;;;-143.77;63.22
13836;BME280;6988;52.614;13.500;2023-06-01T23:32:32;53954.28;;;-143.77;63.60
13836;BME280;6988;52.614;13.500;2023-06-01T23:37:24;53968.66;;;-143.77;63.56
13836;BME280;6988;52.614;13.500;2023-06-01T23:42:19;53974.81;;;-143.77;63.88
13836;BME280;6988;52.614;13.500;2023-06-01T23:47:11;53952.25;;;-143.77;64.05
13836;BME280;6988;52.614;13.500;2023-06-01T23:52:03;53976.88;;;-143.77;64.20
13836;BME280;6988;52.614;13.500;2023-06-01T23:56:55;53985.06;;;-143.77;64.25
